sensor_id;sensor_type;location;lat;lon;timestamp;pressure;altitude;pressure_sealevel;temperature;humidity
45050;BME280;61798;48.048;-1.928;2023-01-31T00:00:40;102250.41;;;4.27;100.00
45050;BME280;61798;48.048;-1.928;2023-01-31T00:02:52;102253.91;;;4.27;100.00
45050;BME280;61798;48.048;-1.928;2023-01-31T00:05:02;102277.94;;;4.50;100.00
45050;BME280;61798;48.048;-1.928;2023-01-31T00:07:15;102261.44;;;4.33;100.00
45050;BME280;61798;48.048;-1.928;2023-01-31T00:09:26;102271.22;;;4.33;100.00
45050;BME280;61798;48.048;-1.928;2023-01-31T00:11:44;102207.41;;;3.97;100.00
45050;BME280;61798;48.048;-1.928;2023-01-31T00:13:56;102199.16;;;3.75;100.00
45050;BME280;61798;48.048;-1.928;2023-01-31T00:16:10;102192.13;;;3.87;100.00
45050;BME280;61798;48.048;-1.928;2023-01-31T00:18:22;102195.88;;;3.85;100.00
45050;BME280;61798;48.048;-1.928;2023-01-31T00:20:38;102264.53;;;4.14;100.00
45050;BME280;61798;48.048;-1.928;2023-01-31T00:22:49;102251.50;;;4.11;100.00
45050;BME280;61798;48.048;-1.928;2023-01-31T00:24:56;102202.75;;;3.87;100.00
45050;BME280;61798;48.048;-1.928;2023-01-31T00:27:05;102213.34;;;4.00;100.00
45050;BME280;61798;48.048;-1.928;2023-01-31T00:29:14;102246.63;;;4.18;100.00
45050;BME280;61798;48.048;-1.928;2023-01-31T00:31:23;102254.13;;;4.24;100.00
45050;BME280;61798;48.048;-1.928;2023-01-31T00:33:32;102252.44;;;4.23;100.00
45050;BME280;61798;48.048;-1.928;2023-01-31T00:35:40;102194.88;;;3.99;100.00
45050;BME280;61798;48.048;-1.928;2023-01-31T00:37:48;102183.63;;;3.95;100.00
45050;BME280;61798;48.048;-1.928;2023-01-31T00:39:54;102169.88;;;3.77;100.00
45050;BME280;61798;48.048;-1.928;2023-01-31T00:42:02;102259.34;;;4.26;100.00
45050;BME280;61798;48.048;-1.928;2023-01-31T00:44:09;102181.97;;;3.81;100.00
45050;BME280;61798;48.048;-1.928;2023-01-31T00:46:17;102192.81;;;3.78;100.00
45050;BME280;61798;48.048;-1.928;2023-01-31T00:48:27;102193.09;;;3.86;100.00
45050;BME280;61798;48.048;-1.928;2023-01-31T00:50:33;102186.84;;;3.87;100.00
45050;BME280;61798;48.048;-1.928;2023-01-31T00:52:41;102186.22;;;3.84;100.00
45050;BME280;61798;48.048;-1.928;2023-01-31T00:54:48;102183.47;;;3.85;100.00
45050;BME280;61798;48.048;-1.928;2023-01-31T00:56:54;102226.78;;;4.10;100.00
45050;BME280;61798;48.048;-1.928;2023-01-31T00:59:03;102208.97;;;3.99;100.00
45050;BME280;61798;48.048;-1.928;2023-01-31T01:01:24;102262.38;;;4.46;100.00
45050;BME280;61798;48.048;-1.928;2023-01-31T01:03:34;102187.91;;;3.85;100.00
45050;BME280;61798;48.048;-1.928;2023-01-31T01:05:41;102236.44;;;4.11;100.00
45050;BME280;61798;48.048;-1.928;2023-01-31T01:07:49;102235.78;;;4.21;100.00
45050;BME280;61798;48.048;-1.928;2023-01-31T01:09:55;102168.41;;;3.73;100.00
45050;BME280;61798;48.048;-1.928;2023-01-31T01:12:03;102208.69;;;3.91;100.00
45050;BME280;61798;48.048;-1.928;2023-01-31T01:14:10;102211.94;;;4.08;100.00
45050;BME280;61798;48.048;-1.928;2023-01-31T01:16:20;102165.63;;;3.87;100.00
45050;BME280;61798;48.048;-1.928;2023-01-31T01:18:28;102165.63;;;3.87;100.00
45050;BME280;61798;48.048;-1.928;2023-01-31T01:20:36;102149.63;;;3.76;100.00
45050;BME280;61798;48.048;-1.928;2023-01-31T01:22:42;102156.41;;;3.80;100.00
45050;BME280;61798;48.048;-1.928;2023-01-31T01:24:48;102163.91;;;3.86;100.00
45050;BME280;61798;48.048;-1.928;2023-01-31T01:26:56;102210.84;;;4.10;100.00
45050;BME280;61798;48.048;-1.928;2023-01-31T01:29:04;102194.88;;;3.99;100.00
45050;BME280;61798;48.048;-1.928;2023-01-31T01:31:13;102152.50;;;3.73;100.00
45050;BME280;61798;48.048;-1.928;2023-01-31T01:33:22;102157.03;;;3.84;100.00
45050;BME280;61798;48.048;-1.928;2023-01-31T01:35:30;102188.50;;;4.01;100.00
45050;BME280;61798;48.048;-1.928;2023-01-31T01:37:37;102203.25;;;4.06;100.00
45050;BME280;61798;48.048;-1.928;2023-01-31T01:39:49;102146.66;;;3.80;100.00
45050;BME280;61798;48.048;-1.928;2023-01-31T01:41:58;102225.47;;;4.29;100.00
45050;BME280;61798;48.048;-1.928;2023-01-31T01:46:53;102137.88;;;3.67;100.00
45050;BME280;61798;48.048;-1.928;2023-01-31T01:51:33;102145.19;;;3.76;100.00
45050;BME280;61798;48.048;-1.928;2023-01-31T01:53:42;102185.50;;;4.06;100.00
45050;BME280;61798;48.048;-1.928;2023-01-31T01:55:53;102169.50;;;3.95;100.00
45050;BME280;61798;48.048;-1.928;2023-01-31T01:58:07;102219.53;;;4.26;100.00
45050;BME280;61798;48.048;-1.928;2023-01-31T02:00:24;102140.94;;;3.74;100.00
45050;BME280;61798;48.048;-1.928;2023-01-31T02:02:33;102137.44;;;3.73;100.00
45050;BME280;61798;48.048;-1.928;2023-01-31T02:04:42;102188.31;;;3.91;100.00
45050;BME280;61798;48.048;-1.928;2023-01-31T02:06:53;102211.75;;;3.98;100.00
45050;BME280;61798;48.048;-1.928;2023-01-31T02:09:00;102155.47;;;3.68;100.00
45050;BME280;61798;48.048;-1.928;2023-01-31T02:11:16;102157.19;;;3.69;100.00
45050;BME280;61798;48.048;-1.928;2023-01-31T02:13:29;102201.25;;;3.83;100.00
45050;BME280;61798;48.048;-1.928;2023-01-31T02:15:37;102155.50;;;3.55;100.00
45050;BME280;61798;48.048;-1.928;2023-01-31T02:17:44;102150.00;;;3.58;100.00
45050;BME280;61798;48.048;-1.928;2023-01-31T02:20:15;102216.94;;;3.99;100.00
45050;BME280;61798;48.048;-1.928;2023-01-31T02:25:21;102231.75;;;4.15;100.00
45050;BME280;61798;48.048;-1.928;2023-01-31T02:30:33;102227.06;;;4.19;100.00
45050;BME280;61798;48.048;-1.928;2023-01-31T02:33:01;102232.84;;;4.12;100.00
45050;BME280;61798;48.048;-1.928;2023-01-31T02:37:41;102239.84;;;4.14;100.00
45050;BME280;61798;48.048;-1.928;2023-01-31T02:40:12;102238.00;;;4.14;100.00
45050;BME280;61798;48.048;-1.928;2023-01-31T02:45:21;102135.03;;;3.44;100.00
45050;BME280;61798;48.048;-1.928;2023-01-31T02:53:14;102234.25;;;4.05;100.00
45050;BME280;61798;48.048;-1.928;2023-01-31T02:55:37;102195.25;;;3.81;100.00
45050;BME280;61798;48.048;-1.928;2023-01-31T02:58:07;102225.75;;;4.00;100.00
45050;BME280;61798;48.048;-1.928;2023-01-31T03:00:16;102205.09;;;3.79;100.00
45050;BME280;61798;48.048;-1.928;2023-01-31T03:02:25;102169.59;;;3.68;100.00
45050;BME280;61798;48.048;-1.928;2023-01-31T03:04:33;102231.59;;;4.05;100.00
45050;BME280;61798;48.048;-1.928;2023-01-31T03:07:16;102240.78;;;4.12;100.00
45050;BME280;61798;48.048;-1.928;2023-01-31T03:12:19;102236.38;;;4.00;100.00
45050;BME280;61798;48.048;-1.928;2023-01-31T03:17:11;102222.69;;;3.93;100.00
45050;BME280;61798;48.048;-1.928;2023-01-31T03:19:59;102194.41;;;3.67;100.00
45050;BME280;61798;48.048;-1.928;2023-01-31T03:22:14;102226.81;;;3.97;100.00
45050;BME280;61798;48.048;-1.928;2023-01-31T03:24:25;102173.63;;;3.61;100.00
45050;BME280;61798;48.048;-1.928;2023-01-31T03:26:36;102228.84;;;3.94;100.00
45050;BME280;61798;48.048;-1.928;2023-01-31T03:28:44;102190.25;;;3.76;100.00
45050;BME280;61798;48.048;-1.928;2023-01-31T03:33:23;102212.94;;;3.94;100.00
45050;BME280;61798;48.048;-1.928;2023-01-31T03:35:35;102188.31;;;3.78;100.00
45050;BME280;61798;48.048;-1.928;2023-01-31T03:37:53;102183.56;;;3.70;100.00
45050;BME280;61798;48.048;-1.928;2023-01-31T03:40:20;102208.34;;;3.96;100.00
45050;BME280;61798;48.048;-1.928;2023-01-31T03:44:48;102227.75;;;4.09;100.00
45050;BME280;61798;48.048;-1.928;2023-01-31T03:47:04;102222.44;;;4.09;100.00
45050;BME280;61798;48.048;-1.928;2023-01-31T03:49:14;102170.97;;;3.74;100.00
45050;BME280;61798;48.048;-1.928;2023-01-31T03:51:26;102164.06;;;3.72;100.00
45050;BME280;61798;48.048;-1.928;2023-01-31T03:53:45;102172.97;;;3.70;100.00
45050;BME280;61798;48.048;-1.928;2023-01-31T03:56:14;102222.88;;;4.03;100.00
45050;BME280;61798;48.048;-1.928;2023-01-31T03:58:28;102190.66;;;3.83;100.00
45050;BME280;61798;48.048;-1.928;2023-01-31T04:00:39;102137.16;;;3.52;100.00
45050;BME280;61798;48.048;-1.928;2023-01-31T04:02:54;102133.03;;;3.47;100.00
45050;BME280;61798;48.048;-1.928;2023-01-31T04:05:17;102217.69;;;4.01;100.00
45050;BME280;61798;48.048;-1.928;2023-01-31T04:07:28;102219.72;;;3.98;100.00
45050;BME280;61798;48.048;-1.928;2023-01-31T04:09:36;102174.97;;;3.80;100.00
45050;BME280;61798;48.048;-1.928;2023-01-31T04:11:47;102209.09;;;3.98;100.00
45050;BME280;61798;48.048;-1.928;2023-01-31T04:13:54;102124.75;;;3.52;100.00
45050;BME280;61798;48.048;-1.928;2023-01-31T04:16:03;102157.50;;;3.64;100.00
45050;BME280;61798;48.048;-1.928;2023-01-31T04:18:11;102131.22;;;3.48;100.00
45050;BME280;61798;48.048;-1.928;2023-01-31T04:20:18;102186.66;;;3.77;100.00
45050;BME280;61798;48.048;-1.928;2023-01-31T04:22:26;102200.84;;;3.89;100.00
45050;BME280;61798;48.048;-1.928;2023-01-31T04:24:35;102185.28;;;3.72;100.00
45050;BME280;61798;48.048;-1.928;2023-01-31T04:26:42;102172.78;;;3.61;100.00
45050;BME280;61798;48.048;-1.928;2023-01-31T04:28:50;102219.19;;;3.93;100.00
45050;BME280;61798;48.048;-1.928;2023-01-31T04:30:57;102124.34;;;3.32;100.00
45050;BME280;61798;48.048;-1.928;2023-01-31T04:33:04;102216.53;;;3.93;100.00
45050;BME280;61798;48.048;-1.928;2023-01-31T04:35:12;102202.53;;;3.90;100.00
45050;BME280;61798;48.048;-1.928;2023-01-31T04:37:19;102184.09;;;3.76;100.00
45050;BME280;61798;48.048;-1.928;2023-01-31T04:39:26;102185.34;;;3.83;100.00
45050;BME280;61798;48.048;-1.928;2023-01-31T04:41:34;102151.66;;;3.59;100.00
45050;BME280;61798;48.048;-1.928;2023-01-31T04:43:41;102183.16;;;3.77;100.00
45050;BME280;61798;48.048;-1.928;2023-01-31T04:45:48;102190.66;;;3.83;100.00
45050;BME280;61798;48.048;-1.928;2023-01-31T04:47:55;102161.00;;;3.65;100.00
45050;BME280;61798;48.048;-1.928;2023-01-31T04:50:03;102170.53;;;3.67;100.00
45050;BME280;61798;48.048;-1.928;2023-01-31T04:52:10;102199.25;;;3.87;100.00
45050;BME280;61798;48.048;-1.928;2023-01-31T04:54:16;102202.25;;;3.82;100.00
45050;BME280;61798;48.048;-1.928;2023-01-31T04:56:22;102178.00;;;3.62;100.00
45050;BME280;61798;48.048;-1.928;2023-01-31T04:58:30;102182.09;;;3.66;100.00
45050;BME280;61798;48.048;-1.928;2023-01-31T05:00:37;102153.91;;;3.52;100.00
45050;BME280;61798;48.048;-1.928;2023-01-31T05:02:45;102170.44;;;3.69;100.00
45050;BME280;61798;48.048;-1.928;2023-01-31T05:04:52;102178.25;;;3.70;100.00
45050;BME280;61798;48.048;-1.928;2023-01-31T05:07:00;102195.47;;;3.78;100.00
45050;BME280;61798;48.048;-1.928;2023-01-31T05:09:07;102195.47;;;3.78;100.00
45050;BME280;61798;48.048;-1.928;2023-01-31T05:11:14;102196.50;;;3.75;100.00
45050;BME280;61798;48.048;-1.928;2023-01-31T05:13:21;102212.63;;;3.85;100.00
45050;BME280;61798;48.048;-1.928;2023-01-31T05:15:30;102214.03;;;3.78;100.00
45050;BME280;61798;48.048;-1.928;2023-01-31T05:17:38;102138.25;;;3.36;100.00
45050;BME280;61798;48.048;-1.928;2023-01-31T05:19:45;102217.00;;;3.73;100.00
45050;BME280;61798;48.048;-1.928;2023-01-31T05:21:54;102220.16;;;3.78;100.00
45050;BME280;61798;48.048;-1.928;2023-01-31T05:24:04;102202.34;;;3.67;100.00
45050;BME280;61798;48.048;-1.928;2023-01-31T05:26:12;102209.44;;;3.67;100.00
45050;BME280;61798;48.048;-1.928;2023-01-31T05:28:19;102161.88;;;3.39;100.00
45050;BME280;61798;48.048;-1.928;2023-01-31T05:30:25;102160.59;;;3.32;100.00
45050;BME280;61798;48.048;-1.928;2023-01-31T05:32:32;102189.09;;;3.67;100.00
45050;BME280;61798;48.048;-1.928;2023-01-31T05:34:38;102196.09;;;3.68;100.00
45050;BME280;61798;48.048;-1.928;2023-01-31T05:36:45;102184.34;;;3.46;100.00
45050;BME280;61798;48.048;-1.928;2023-01-31T05:38:51;102197.03;;;3.67;100.00
45050;BME280;61798;48.048;-1.928;2023-01-31T05:40:58;102201.19;;;3.72;100.00
45050;BME280;61798;48.048;-1.928;2023-01-31T05:43:06;102157.31;;;3.41;100.00
45050;BME280;61798;48.048;-1.928;2023-01-31T05:45:13;102195.88;;;3.72;100.00
45050;BME280;61798;48.048;-1.928;2023-01-31T05:47:22;102183.06;;;3.52;100.00
45050;BME280;61798;48.048;-1.928;2023-01-31T05:49:31;102201.81;;;3.75;100.00
45050;BME280;61798;48.048;-1.928;2023-01-31T05:51:40;102214.84;;;3.78;100.00
45050;BME280;61798;48.048;-1.928;2023-01-31T05:53:47;102169.91;;;3.51;100.00
45050;BME280;61798;48.048;-1.928;2023-01-31T05:55:55;102212.22;;;3.65;100.00
45050;BME280;61798;48.048;-1.928;2023-01-31T05:58:03;102219.44;;;3.76;100.00
45050;BME280;61798;48.048;-1.928;2023-01-31T06:00:12;102214.75;;;3.80;100.00
45050;BME280;61798;48.048;-1.928;2023-01-31T06:02:20;102158.06;;;3.43;100.00
45050;BME280;61798;48.048;-1.928;2023-01-31T06:04:28;102177.53;;;3.55;100.00
45050;BME280;61798;48.048;-1.928;2023-01-31T06:06:35;102208.41;;;3.69;100.00
45050;BME280;61798;48.048;-1.928;2023-01-31T06:08:41;102185.41;;;3.57;100.00
45050;BME280;61798;48.048;-1.928;2023-01-31T06:10:47;102196.41;;;3.64;100.00
45050;BME280;61798;48.048;-1.928;2023-01-31T06:12:53;102185.41;;;3.57;100.00
45050;BME280;61798;48.048;-1.928;2023-01-31T06:15:01;102187.31;;;3.55;100.00
45050;BME280;61798;48.048;-1.928;2023-01-31T06:17:09;102191.03;;;3.52;100.00
45050;BME280;61798;48.048;-1.928;2023-01-31T06:19:16;102203.19;;;3.68;100.00
45050;BME280;61798;48.048;-1.928;2023-01-31T06:21:24;102188.16;;;3.55;100.00
45050;BME280;61798;48.048;-1.928;2023-01-31T06:23:31;102125.34;;;3.18;100.00
45050;BME280;61798;48.048;-1.928;2023-01-31T06:25:40;102187.53;;;3.52;100.00
45050;BME280;61798;48.048;-1.928;2023-01-31T06:27:47;102190.06;;;3.53;100.00
45050;BME280;61798;48.048;-1.928;2023-01-31T06:29:54;102210.63;;;3.63;100.00
45050;BME280;61798;48.048;-1.928;2023-01-31T06:32:02;102209.03;;;3.60;100.00
45050;BME280;61798;48.048;-1.928;2023-01-31T06:34:10;102199.50;;;3.57;100.00
45050;BME280;61798;48.048;-1.928;2023-01-31T06:36:19;102205.44;;;3.61;100.00
45050;BME280;61798;48.048;-1.928;2023-01-31T06:38:27;102211.78;;;3.58;100.00
45050;BME280;61798;48.048;-1.928;2023-01-31T06:40:34;102205.84;;;3.55;100.00
45050;BME280;61798;48.048;-1.928;2023-01-31T06:42:42;102230.56;;;3.68;100.00
45050;BME280;61798;48.048;-1.928;2023-01-31T06:44:49;102217.41;;;3.67;100.00
45050;BME280;61798;48.048;-1.928;2023-01-31T06:46:56;102235.88;;;3.68;100.00
45050;BME280;61798;48.048;-1.928;2023-01-31T06:49:02;102201.84;;;3.49;100.00
45050;BME280;61798;48.048;-1.928;2023-01-31T06:51:10;102159.88;;;3.30;100.00
45050;BME280;61798;48.048;-1.928;2023-01-31T06:53:17;102208.41;;;3.56;100.00
45050;BME280;61798;48.048;-1.928;2023-01-31T06:55:23;102205.97;;;3.53;100.00
45050;BME280;61798;48.048;-1.928;2023-01-31T06:57:30;102133.91;;;3.09;100.00
45050;BME280;61798;48.048;-1.928;2023-01-31T06:59:37;102215.63;;;3.54;100.00
45050;BME280;61798;48.048;-1.928;2023-01-31T07:01:44;102227.59;;;3.60;100.00
45050;BME280;61798;48.048;-1.928;2023-01-31T07:03:52;102183.19;;;3.24;100.00
45050;BME280;61798;48.048;-1.928;2023-01-31T07:05:59;102237.91;;;3.65;100.00
45050;BME280;61798;48.048;-1.928;2023-01-31T07:08:07;102254.13;;;3.73;100.00
45050;BME280;61798;48.048;-1.928;2023-01-31T07:10:13;102238.13;;;3.62;100.00
45050;BME280;61798;48.048;-1.928;2023-01-31T07:12:19;102218.69;;;3.48;100.00
45050;BME280;61798;48.048;-1.928;2023-01-31T07:14:26;102238.22;;;3.60;100.00
45050;BME280;61798;48.048;-1.928;2023-01-31T07:16:35;102252.72;;;3.67;100.00
45050;BME280;61798;48.048;-1.928;2023-01-31T07:18:44;102220.19;;;3.52;100.00
45050;BME280;61798;48.048;-1.928;2023-01-31T07:20:51;102247.44;;;3.67;100.00
45050;BME280;61798;48.048;-1.928;2023-01-31T07:22:59;102253.69;;;3.66;100.00
45050;BME280;61798;48.048;-1.928;2023-01-31T07:25:06;102235.00;;;3.55;100.00
45050;BME280;61798;48.048;-1.928;2023-01-31T07:27:12;102264.72;;;3.73;100.00
45050;BME280;61798;48.048;-1.928;2023-01-31T07:29:19;102270.03;;;3.73;100.00
45050;BME280;61798;48.048;-1.928;2023-01-31T07:31:26;102239.38;;;3.56;100.00
45050;BME280;61798;48.048;-1.928;2023-01-31T07:33:34;102253.38;;;3.58;100.00
45050;BME280;61798;48.048;-1.928;2023-01-31T07:35:42;102247.31;;;3.56;100.00
45050;BME280;61798;48.048;-1.928;2023-01-31T07:37:52;102229.31;;;3.48;100.00
45050;BME280;61798;48.048;-1.928;2023-01-31T07:39:59;102233.75;;;3.47;100.00
45050;BME280;61798;48.048;-1.928;2023-01-31T07:42:07;102216.91;;;3.48;100.00
45050;BME280;61798;48.048;-1.928;2023-01-31T07:44:15;102245.72;;;3.66;100.00
45050;BME280;61798;48.048;-1.928;2023-01-31T07:46:22;102222.09;;;3.50;100.00
45050;BME280;61798;48.048;-1.928;2023-01-31T07:48:29;102235.66;;;3.58;100.00
45050;BME280;61798;48.048;-1.928;2023-01-31T07:50:37;102225.38;;;3.54;100.00
45050;BME280;61798;48.048;-1.928;2023-01-31T07:52:44;102247.75;;;3.63;100.00
45050;BME280;61798;48.048;-1.928;2023-01-31T07:54:52;102254.75;;;3.77;100.00
45050;BME280;61798;48.048;-1.928;2023-01-31T07:56:59;102251.03;;;3.66;100.00
45050;BME280;61798;48.048;-1.928;2023-01-31T07:59:06;102230.06;;;3.50;100.00
45050;BME280;61798;48.048;-1.928;2023-01-31T08:01:18;102260.06;;;3.77;100.00
45050;BME280;61798;48.048;-1.928;2023-01-31T08:03:44;102233.97;;;3.57;100.00
45050;BME280;61798;48.048;-1.928;2023-01-31T08:05:51;102215.50;;;3.43;100.00
45050;BME280;61798;48.048;-1.928;2023-01-31T08:07:59;102226.34;;;3.53;100.00
45050;BME280;61798;48.048;-1.928;2023-01-31T08:10:15;102238.84;;;3.64;100.00
45050;BME280;61798;48.048;-1.928;2023-01-31T08:12:23;102267.78;;;3.80;100.00
45050;BME280;61798;48.048;-1.928;2023-01-31T08:14:31;102247.34;;;3.69;100.00
45050;BME280;61798;48.048;-1.928;2023-01-31T08:16:38;102241.91;;;3.70;100.00
45050;BME280;61798;48.048;-1.928;2023-01-31T08:18:47;102259.63;;;3.83;100.00
45050;BME280;61798;48.048;-1.928;2023-01-31T08:20:56;102242.44;;;3.76;100.00
45050;BME280;61798;48.048;-1.928;2023-01-31T08:23:03;102245.84;;;3.78;100.00
45050;BME280;61798;48.048;-1.928;2023-01-31T08:25:10;102222.72;;;3.67;100.00
45050;BME280;61798;48.048;-1.928;2023-01-31T08:27:17;102234.16;;;3.80;100.00
45050;BME280;61798;48.048;-1.928;2023-01-31T08:29:25;102261.41;;;3.96;100.00
45050;BME280;61798;48.048;-1.928;2023-01-31T08:31:33;102209.34;;;3.68;100.00
45050;BME280;61798;48.048;-1.928;2023-01-31T08:33:40;102228.00;;;3.80;100.00
45050;BME280;61798;48.048;-1.928;2023-01-31T08:35:46;102239.88;;;3.87;100.00
45050;BME280;61798;48.048;-1.928;2023-01-31T08:37:53;102214.22;;;3.75;100.00
45050;BME280;61798;48.048;-1.928;2023-01-31T08:40:01;102221.97;;;3.78;100.00
45050;BME280;61798;48.048;-1.928;2023-01-31T08:42:07;102258.53;;;3.99;100.00
45050;BME280;61798;48.048;-1.928;2023-01-31T08:44:15;102221.97;;;3.78;100.00
45050;BME280;61798;48.048;-1.928;2023-01-31T08:46:25;102248.16;;;3.96;100.00
45050;BME280;61798;48.048;-1.928;2023-01-31T08:48:33;102245.50;;;3.96;100.00
45050;BME280;61798;48.048;-1.928;2023-01-31T08:50:44;102265.31;;;4.03;100.00
45050;BME280;61798;48.048;-1.928;2023-01-31T08:53:01;102247.28;;;3.95;100.00
45050;BME280;61798;48.048;-1.928;2023-01-31T08:55:09;102259.38;;;3.99;100.00
45050;BME280;61798;48.048;-1.928;2023-01-31T08:57:19;102234.56;;;3.87;100.00
45050;BME280;61798;48.048;-1.928;2023-01-31T08:59:28;102260.00;;;4.03;100.00
45050;BME280;61798;48.048;-1.928;2023-01-31T09:01:36;102274.34;;;4.14;100.00
45050;BME280;61798;48.048;-1.928;2023-01-31T09:03:44;102244.94;;;4.04;100.00
45050;BME280;61798;48.048;-1.928;2023-01-31T09:05:50;102282.59;;;4.22;100.00
45050;BME280;61798;48.048;-1.928;2023-01-31T09:07:58;102267.97;;;4.16;100.00
45050;BME280;61798;48.048;-1.928;2023-01-31T09:10:06;102258.13;;;4.05;100.00
45050;BME280;61798;48.048;-1.928;2023-01-31T09:12:14;102291.75;;;4.18;100.00
45050;BME280;61798;48.048;-1.928;2023-01-31T09:14:21;102256.41;;;4.04;100.00
45050;BME280;61798;48.048;-1.928;2023-01-31T09:16:28;102276.78;;;4.17;100.00
45050;BME280;61798;48.048;-1.928;2023-01-31T09:18:37;102288.63;;;4.24;100.00
45050;BME280;61798;48.048;-1.928;2023-01-31T09:20:45;102274.22;;;4.15;100.00
45050;BME280;61798;48.048;-1.928;2023-01-31T09:22:52;102282.16;;;4.15;100.00
45050;BME280;61798;48.048;-1.928;2023-01-31T09:25:00;102264.38;;;4.04;100.00
45050;BME280;61798;48.048;-1.928;2023-01-31T09:27:07;102282.59;;;4.22;100.00
45050;BME280;61798;48.048;-1.928;2023-01-31T09:29:14;102319.16;;;4.43;100.00
45050;BME280;61798;48.048;-1.928;2023-01-31T09:31:21;102222.38;;;3.98;100.00
45050;BME280;61798;48.048;-1.928;2023-01-31T09:33:30;102291.66;;;4.44;100.00
45050;BME280;61798;48.048;-1.928;2023-01-31T09:35:39;102272.69;;;4.37;100.00
45050;BME280;61798;48.048;-1.928;2023-01-31T09:37:46;102243.63;;;4.22;100.00
45050;BME280;61798;48.048;-1.928;2023-01-31T09:39:54;102275.50;;;4.47;100.00
45050;BME280;61798;48.048;-1.928;2023-01-31T09:44:37;102285.16;;;4.61;100.00
45050;BME280;61798;48.048;-1.928;2023-01-31T09:46:58;102316.94;;;4.74;100.00
45050;BME280;61798;48.048;-1.928;2023-01-31T09:49:15;102310.28;;;4.69;100.00
45050;BME280;61798;48.048;-1.928;2023-01-31T09:51:25;102299.75;;;4.67;100.00
45050;BME280;61798;48.048;-1.928;2023-01-31T09:53:35;102309.22;;;4.71;100.00
45050;BME280;61798;48.048;-1.928;2023-01-31T09:56:13;102308.47;;;4.69;100.00
45050;BME280;61798;48.048;-1.928;2023-01-31T09:58:26;102310.16;;;4.70;100.00
45050;BME280;61798;48.048;-1.928;2023-01-31T10:00:50;102296.59;;;4.62;100.00
45050;BME280;61798;48.048;-1.928;2023-01-31T10:05:57;102307.56;;;4.82;100.00
45050;BME280;61798;48.048;-1.928;2023-01-31T10:10:46;102320.06;;;4.93;100.00
45050;BME280;61798;48.048;-1.928;2023-01-31T10:13:00;102286.78;;;4.75;100.00
45050;BME280;61798;48.048;-1.928;2023-01-31T10:15:32;102301.16;;;4.97;100.00
45050;BME280;61798;48.048;-1.928;2023-01-31T10:17:45;102309.38;;;5.06;100.00
45050;BME280;61798;48.048;-1.928;2023-01-31T10:20:15;102306.38;;;5.11;100.00
45050;BME280;61798;48.048;-1.928;2023-01-31T10:22:49;102253.75;;;4.91;100.00
45050;BME280;61798;48.048;-1.928;2023-01-31T10:25:00;102314.03;;;5.27;100.00
45050;BME280;61798;48.048;-1.928;2023-01-31T10:27:22;102266.03;;;5.05;100.00
45050;BME280;61798;48.048;-1.928;2023-01-31T10:29:42;102283.34;;;5.23;100.00
45050;BME280;61798;48.048;-1.928;2023-01-31T10:34:12;102297.94;;;5.53;100.00
45050;BME280;61798;48.048;-1.928;2023-01-31T10:38:57;102313.91;;;5.65;100.00
45050;BME280;61798;48.048;-1.928;2023-01-31T10:41:13;102246.25;;;5.21;100.00
45050;BME280;61798;48.048;-1.928;2023-01-31T10:44:05;102302.03;;;5.57;100.00
45050;BME280;61798;48.048;-1.928;2023-01-31T10:46:12;102284.81;;;5.38;100.00
45050;BME280;61798;48.048;-1.928;2023-01-31T10:48:21;102252.66;;;5.30;100.00
45050;BME280;61798;48.048;-1.928;2023-01-31T10:57:16;102293.59;;;5.75;100.00
45050;BME280;61798;48.048;-1.928;2023-01-31T10:59:35;102253.78;;;5.39;100.00
45050;BME280;61798;48.048;-1.928;2023-01-31T11:01:42;102292.25;;;5.69;100.00
45050;BME280;61798;48.048;-1.928;2023-01-31T11:03:51;102270.00;;;5.70;100.00
45050;BME280;61798;48.048;-1.928;2023-01-31T11:05:57;102269.41;;;5.90;100.00
45050;BME280;61798;48.048;-1.928;2023-01-31T11:08:28;102315.06;;;6.20;100.00
45050;BME280;61798;48.048;-1.928;2023-01-31T11:10:50;102335.00;;;6.37;100.00
45050;BME280;61798;48.048;-1.928;2023-01-31T11:12:59;102239.19;;;5.91;100.00
45050;BME280;61798;48.048;-1.928;2023-01-31T11:15:19;102277.66;;;6.33;100.00
45050;BME280;61798;48.048;-1.928;2023-01-31T11:17:28;102286.94;;;6.50;100.00
45050;BME280;61798;48.048;-1.928;2023-01-31T11:19:43;102284.41;;;6.49;100.00
45050;BME280;61798;48.048;-1.928;2023-01-31T11:21:52;102237.34;;;6.26;100.00
45050;BME280;61798;48.048;-1.928;2023-01-31T11:24:25;102277.16;;;6.39;100.00
45050;BME280;61798;48.048;-1.928;2023-01-31T11:26:32;102276.28;;;6.50;100.00
45050;BME280;61798;48.048;-1.928;2023-01-31T11:28:40;102236.72;;;6.34;100.00
45050;BME280;61798;48.048;-1.928;2023-01-31T11:30:49;102280.47;;;6.76;100.00
45050;BME280;61798;48.048;-1.928;2023-01-31T11:32:57;102257.56;;;6.73;100.00
45050;BME280;61798;48.048;-1.928;2023-01-31T11:35:04;102294.06;;;6.94;100.00
45050;BME280;61798;48.048;-1.928;2023-01-31T11:37:17;102287.44;;;6.89;100.00
45050;BME280;61798;48.048;-1.928;2023-01-31T11:39:34;102196.63;;;6.47;100.00
45050;BME280;61798;48.048;-1.928;2023-01-31T11:41:42;102244.88;;;6.65;100.00
45050;BME280;61798;48.048;-1.928;2023-01-31T11:43:48;102209.66;;;6.29;100.00
45050;BME280;61798;48.048;-1.928;2023-01-31T11:45:59;102284.69;;;6.79;100.00
45050;BME280;61798;48.048;-1.928;2023-01-31T11:48:15;102280.56;;;7.07;100.00
45050;BME280;61798;48.048;-1.928;2023-01-31T11:50:38;102264.41;;;6.87;100.00
45050;BME280;61798;48.048;-1.928;2023-01-31T11:52:45;102223.31;;;6.69;100.00
45050;BME280;61798;48.048;-1.928;2023-01-31T11:54:55;102289.59;;;6.95;100.00
45050;BME280;61798;48.048;-1.928;2023-01-31T11:57:13;102279.47;;;7.10;100.00
45050;BME280;61798;48.048;-1.928;2023-01-31T11:59:22;102190.72;;;6.76;100.00
45050;BME280;61798;48.048;-1.928;2023-01-31T12:01:31;102214.41;;;7.01;100.00
45050;BME280;61798;48.048;-1.928;2023-01-31T12:03:38;102263.50;;;7.63;100.00
45050;BME280;61798;48.048;-1.928;2023-01-31T12:05:49;102243.09;;;7.52;100.00